createdAt,value
2022-10-05T00:00:58.986Z,97447.91
2022-10-05T00:03:30.438Z,97452.22
2022-10-05T00:05:57.503Z,97455.69
2022-10-05T00:08:30.047Z,97455.69
2022-10-05T00:10:56.440Z,97450.13
2022-10-05T00:13:26.144Z,97450.41
2022-10-05T00:15:59.493Z,97464.78
2022-10-05T00:18:27.030Z,97459.75
2022-10-05T00:20:54.043Z,97453.06
2022-10-05T00:23:31.418Z,97454.94
2022-10-05T00:26:22.255Z,97457.56
2022-10-05T00:28:49.243Z,97461.28
2022-10-05T00:31:21.313Z,97459.66
2022-10-05T00:33:48.746Z,97458.41
2022-10-05T00:36:15.815Z,97451.84
2022-10-05T00:38:43.188Z,97453.16
2022-10-05T00:41:28.235Z,97457.59
2022-10-05T00:44:06.693Z,97461.66
2022-10-05T00:46:46.981Z,97451.28
2022-10-05T00:49:35.084Z,97457.41
2022-10-05T00:52:22.066Z,97448.13
2022-10-05T00:55:25.065Z,97447.91
2022-10-05T00:58:14.646Z,97449.75
2022-10-05T01:00:53.242Z,97451.75
2022-10-05T01:03:34.071Z,97454.72
2022-10-05T01:06:22.450Z,97446.19
2022-10-05T01:08:51.909Z,97443.75
2022-10-05T01:11:18.285Z,97439.50
2022-10-05T01:14:21.260Z,97447.81
2022-10-05T01:16:47.974Z,97444.38
2022-10-05T01:19:45.139Z,97443.28
2022-10-05T01:22:36.259Z,97444.06
2022-10-05T01:25:30.100Z,97434.75
2022-10-05T01:28:07.664Z,97442.47
2022-10-05T01:30:53.697Z,97437.97
2022-10-05T01:33:40.014Z,97439.56
2022-10-05T01:36:20.346Z,97437.94
2022-10-05T01:39:08.376Z,97438.78
2022-10-05T01:41:45.066Z,97439.28
2022-10-05T01:44:17.604Z,97437.94
2022-10-05T01:46:50.367Z,97437.16
2022-10-05T01:49:46.012Z,97439.03
2022-10-05T01:52:46.413Z,97428.13
2022-10-05T01:55:19.990Z,97432.66
2022-10-05T01:58:12.657Z,97433.97
2022-10-05T02:00:57.988Z,97429.19
2022-10-05T02:03:30.373Z,97426.81
2022-10-05T02:06:04.378Z,97426.25
2022-10-05T02:08:33.539Z,97428.63
2022-10-05T02:11:05.399Z,97427.06
2022-10-05T02:13:41.413Z,97428.94
2022-10-05T02:16:16.801Z,97433.22
2022-10-05T02:18:57.510Z,97429.53
2022-10-05T02:21:24.604Z,97436.50
2022-10-05T02:23:56.641Z,97437.00
2022-10-05T02:26:25.421Z,97425.78
2022-10-05T02:28:59.914Z,97427.09
2022-10-05T02:31:39.807Z,97426.31
2022-10-05T02:34:21.532Z,97424.13
2022-10-05T02:36:56.057Z,97426.56
2022-10-05T02:39:47.377Z,97412.72
2022-10-05T02:42:26.043Z,97424.25
2022-10-05T02:45:10.073Z,97421.25
2022-10-05T02:47:43.991Z,97427.38
2022-10-05T02:50:30.604Z,97422.56
2022-10-05T02:53:22.601Z,97422.81
2022-10-05T02:56:00.854Z,97424.47
2022-10-05T02:58:32.472Z,97426.34
2022-10-05T03:01:19.163Z,97427.41
2022-10-05T03:04:00.266Z,97429.38
2022-10-05T03:06:32.773Z,97433.13
2022-10-05T03:09:07.156Z,97421.91
2022-10-05T03:12:04.886Z,97419.19
2022-10-05T03:14:38.395Z,97419.72
2022-10-05T03:17:10.786Z,97420.75
2022-10-05T03:20:01.994Z,97426.34
2022-10-05T03:22:46.856Z,97422.59
2022-10-05T03:25:31.242Z,97423.38
2022-10-05T03:28:23.076Z,97420.53
2022-10-05T03:31:15.905Z,97423.22
2022-10-05T03:33:57.760Z,97424.47
2022-10-05T03:36:31.776Z,97438.06
2022-10-05T03:39:24.986Z,97434.91
2022-10-05T03:41:59.604Z,97432.69
2022-10-05T03:44:40.559Z,97432.69
2022-10-05T03:47:35.864Z,97431.69
2022-10-05T03:50:31.346Z,97433.81
2022-10-05T03:53:19.755Z,97435.41
2022-10-05T03:55:54.098Z,97432.75
2022-10-05T03:58:26.100Z,97435.69
2022-10-05T04:01:00.840Z,97437.63
2022-10-05T04:03:39.699Z,97437.56
2022-10-05T04:06:18.021Z,97441.25
2022-10-05T04:08:57.875Z,97447.72
2022-10-05T04:11:43.585Z,97445.06
2022-10-05T04:14:25.636Z,97447.50
2022-10-05T04:17:09.001Z,97439.75
2022-10-05T04:19:54.161Z,97441.06
2022-10-05T04:22:37.111Z,97444.00
2022-10-05T04:25:29.451Z,97444.00
2022-10-05T04:28:10.335Z,97447.94
2022-10-05T04:30:42.173Z,97446.63
2022-10-05T04:33:11.291Z,97442.38
2022-10-05T04:36:02.369Z,97447.47
2022-10-05T04:38:48.726Z,97445.88
2022-10-05T04:41:35.706Z,97437.66
2022-10-05T04:44:02.068Z,97437.19
2022-10-05T04:46:38.262Z,97436.84
2022-10-05T04:49:18.702Z,97446.16
2022-10-05T04:52:03.420Z,97444.03
2022-10-05T04:54:38.982Z,97441.94
2022-10-05T04:57:23.660Z,97443.59
2022-10-05T05:00:11.876Z,97442.03
2022-10-05T05:03:03.284Z,97447.00
2022-10-05T05:05:48.402Z,97447.84
2022-10-05T05:08:51.014Z,97445.22
2022-10-05T05:11:40.486Z,97448.88
2022-10-05T05:14:21.911Z,97451.88
2022-10-05T05:17:15.187Z,97455.31
2022-10-05T05:19:58.797Z,97455.88
2022-10-05T05:22:25.956Z,97460.88
2022-10-05T05:25:14.068Z,97455.81
2022-10-05T05:27:48.565Z,97462.47
2022-10-05T05:30:39.161Z,97463.53
2022-10-05T05:33:05.545Z,97466.53
2022-10-05T05:35:58.758Z,97470.72
2022-10-05T05:38:34.121Z,97468.81
2022-10-05T05:41:13.275Z,97469.91
2022-10-05T05:44:09.023Z,97470.22
2022-10-05T05:49:31.106Z,97469.22
2022-10-05T05:52:14.475Z,97475.03
2022-10-05T05:54:51.128Z,97470.25
2022-10-05T05:57:29.748Z,97471.06
2022-10-05T06:00:16.436Z,97471.84
2022-10-05T06:02:54.341Z,97472.91
2022-10-05T06:05:27.168Z,97473.44
2022-10-05T06:07:55.569Z,97472.09
2022-10-05T06:10:34.902Z,97471.28
2022-10-05T06:13:10.406Z,97474.47
2022-10-05T06:15:42.945Z,97477.63
2022-10-05T06:18:15.741Z,97483.22
2022-10-05T06:21:14.180Z,97492.53
2022-10-05T06:24:00.782Z,97492.50
2022-10-05T06:27:06.244Z,97494.94
2022-10-05T06:30:06.826Z,97498.63
2022-10-05T06:32:43.471Z,97508.13
2022-10-05T06:35:46.495Z,97505.75
2022-10-05T06:38:34.516Z,97503.09
2022-10-05T06:41:38.710Z,97502.56
2022-10-05T06:44:48.481Z,97506.28
2022-10-05T06:47:33.614Z,97505.53
2022-10-05T06:50:08.114Z,97495.88
2022-10-05T06:52:40.153Z,97500.66
2022-10-05T06:55:40.428Z,97497.72
2022-10-05T06:58:36.358Z,97501.13
2022-10-05T07:01:15.284Z,97496.03
2022-10-05T07:04:03.406Z,97508.22
2022-10-05T07:06:43.406Z,97506.41
2022-10-05T07:09:43.620Z,97502.38
2022-10-05T07:12:13.104Z,97503.91
2022-10-05T07:15:30.496Z,97509.50
2022-10-05T07:18:15.520Z,97512.44
2022-10-05T07:20:52.230Z,97517.22
2022-10-05T07:23:24.629Z,97517.97
2022-10-05T07:25:51.040Z,97520.09
2022-10-05T07:28:27.800Z,97533.50
2022-10-05T07:31:09.498Z,97528.38
2022-10-05T07:33:53.188Z,97525.19
2022-10-05T07:36:54.389Z,97526.25
2022-10-05T07:39:55.493Z,97529.91
2022-10-05T07:42:29.615Z,97529.09
2022-10-05T07:45:08.223Z,97533.84
2022-10-05T07:47:50.623Z,97546.94
2022-10-05T07:50:27.633Z,97537.84
2022-10-05T07:52:56.577Z,97546.34
2022-10-05T07:55:36.915Z,97544.25
2022-10-05T07:58:17.462Z,97548.50
2022-10-05T08:01:00.559Z,97549.28
2022-10-05T08:03:49.787Z,97546.78
2022-10-05T08:06:30.233Z,97541.19
2022-10-05T08:09:04.864Z,97540.41
2022-10-05T08:11:42.018Z,97553.75
2022-10-05T08:14:16.913Z,97550.47
2022-10-05T08:16:46.571Z,97543.44
2022-10-05T08:19:33.847Z,97548.78
2022-10-05T08:22:09.315Z,97548.72
2022-10-05T08:24:46.310Z,97544.47
2022-10-05T08:27:23.042Z,97551.28
2022-10-05T08:30:01.363Z,97543.44
2022-10-05T08:32:34.872Z,97546.56
2022-10-05T08:35:21.581Z,97543.06
2022-10-05T08:37:49.302Z,97550.22
2022-10-05T08:40:18.701Z,97549.47
2022-10-05T08:43:23.619Z,97548.84
2022-10-05T08:46:25.657Z,97556.28
2022-10-05T08:48:58.024Z,97549.81
2022-10-05T08:51:58.486Z,97558.91
2022-10-05T08:54:43.366Z,97559.41
2022-10-05T08:57:18.228Z,97555.84
2022-10-05T09:00:10.284Z,97552.31
2022-10-05T09:02:36.700Z,97570.50
2022-10-05T09:05:09.192Z,97557.16
2022-10-05T09:07:47.773Z,97567.50
2022-10-05T09:10:26.073Z,97566.69
2022-10-05T09:13:12.585Z,97569.06
2022-10-05T09:15:39.351Z,97574.47
2022-10-05T09:18:24.840Z,97567.50
2022-10-05T09:20:55.105Z,97568.78
2022-10-05T09:24:00.506Z,97564.44
2022-10-05T09:27:03.319Z,97565.03
2022-10-05T09:29:47.676Z,97563.09
2022-10-05T09:32:44.458Z,97556.16
2022-10-05T09:35:32.108Z,97558.75
2022-10-05T09:38:34.172Z,97567.06
2022-10-05T09:41:06.929Z,97555.00
2022-10-05T09:43:51.391Z,97567.06
2022-10-05T09:46:17.755Z,97557.19
2022-10-05T09:49:07.432Z,97559.56
2022-10-05T09:51:36.661Z,97563.75
2022-10-05T09:54:23.305Z,97554.38
2022-10-05T09:57:27.955Z,97554.06
2022-10-05T10:00:15.842Z,97553.13
2022-10-05T10:02:58.437Z,97549.88
2022-10-05T10:05:49.431Z,97551.97
2022-10-05T10:08:27.940Z,97551.63
2022-10-05T10:11:20.270Z,97551.63
2022-10-05T10:13:55.706Z,97546.47
2022-10-05T10:16:46.124Z,97547.84
2022-10-05T10:19:21.464Z,97553.19
2022-10-05T10:22:18.929Z,97558.53
2022-10-05T10:25:16.540Z,97557.41
2022-10-05T10:27:42.880Z,97564.53
2022-10-05T10:30:39.481Z,97551.59
2022-10-05T10:33:15.583Z,97554.47
2022-10-05T10:36:04.439Z,97556.06
2022-10-05T10:38:39.985Z,97556.56
2022-10-05T10:41:09.286Z,97558.66
2022-10-05T10:43:44.741Z,97562.84
2022-10-05T10:46:44.672Z,97556.97
2022-10-05T10:49:25.270Z,97555.91
2022-10-05T10:52:01.797Z,97558.88
2022-10-05T10:54:41.395Z,97559.66
2022-10-05T10:57:16.854Z,97563.34
2022-10-05T10:59:49.269Z,97563.63
2022-10-05T11:02:31.501Z,97555.69
2022-10-05T11:05:31.603Z,97543.91
2022-10-05T11:08:33.263Z,97550.56
2022-10-05T11:11:22.586Z,97549.25
2022-10-05T11:13:56.244Z,97548.94
2022-10-05T11:16:47.894Z,97539.63
2022-10-05T11:19:24.886Z,97543.13
2022-10-05T11:22:22.592Z,97535.09
2022-10-05T11:25:02.374Z,97534.00
2022-10-05T11:28:08.249Z,97536.66
2022-10-05T11:31:02.769Z,97534.94
2022-10-05T11:33:32.067Z,97528.91
2022-10-05T11:36:17.914Z,97526.75
2022-10-05T11:39:18.354Z,97526.06
2022-10-05T11:42:22.100Z,97525.28
2022-10-05T11:44:57.594Z,97517.56
2022-10-05T11:47:40.336Z,97513.97
2022-10-05T11:50:20.376Z,97512.03
2022-10-05T11:53:00.713Z,97510.59
2022-10-05T11:55:44.851Z,97512.63
2022-10-05T11:58:20.545Z,97505.06
2022-10-05T12:00:56.842Z,97510.13
2022-10-05T12:03:54.800Z,97506.84
2022-10-05T12:06:46.532Z,97504.47
2022-10-05T12:09:38.257Z,97509.72
2022-10-05T12:12:07.841Z,97498.88
2022-10-05T12:14:59.050Z,97503.66
2022-10-05T12:17:45.191Z,97502.88
2022-10-05T12:20:46.155Z,97495.91
2022-10-05T12:23:23.072Z,97488.59
2022-10-05T12:26:01.609Z,97493.75
2022-10-05T12:28:40.823Z,97490.47
2022-10-05T12:31:32.258Z,97489.59
2022-10-05T12:34:08.077Z,97489.41
2022-10-05T12:37:05.954Z,97486.63
2022-10-05T12:39:54.575Z,97488.59
2022-10-05T12:42:41.763Z,97482.66
2022-10-05T12:45:14.551Z,97485.22
2022-10-05T12:48:26.853Z,97481.34
2022-10-05T12:51:19.323Z,97479.56
2022-10-05T12:54:00.139Z,97477.84
2022-10-05T12:56:42.865Z,97473.88
2022-10-05T12:59:47.453Z,97476.66
2022-10-05T13:02:42.349Z,97483.50
2022-10-05T13:05:08.722Z,97480.16
2022-10-05T13:07:46.179Z,97474.19
2022-10-05T13:10:33.306Z,97473.50
2022-10-05T13:13:57.583Z,97466.56
2022-10-05T13:16:32.552Z,97475.25
2022-10-05T13:19:34.217Z,97467.94
2022-10-05T13:22:16.654Z,97473.69
2022-10-05T13:25:04.381Z,97467.16
2022-10-05T13:27:40.013Z,97470.69
2022-10-05T13:30:18.724Z,97472.28
2022-10-05T13:32:48.385Z,97472.06
2022-10-05T13:35:30.485Z,97473.78
2022-10-05T13:38:05.951Z,97472.78
2022-10-05T13:40:43.829Z,97472.16
2022-10-05T13:43:32.264Z,97466.81
2022-10-05T13:46:10.603Z,97467.78
2022-10-05T13:48:56.979Z,97464.19
2022-10-05T13:51:40.607Z,97468.75
2022-10-05T13:54:19.203Z,97468.28
2022-10-05T13:56:51.810Z,97465.28
2022-10-05T13:59:43.853Z,97459.13
2022-10-05T14:02:15.388Z,97462.53
2022-10-05T14:04:58.683Z,97463.72
2022-10-05T14:07:37.795Z,97462.81
2022-10-05T14:10:11.432Z,97461.06
2022-10-05T14:12:44.267Z,97468.50
2022-10-05T14:15:55.248Z,97456.19
2022-10-05T14:18:27.235Z,97462.19
2022-10-05T14:21:17.086Z,97460.91
2022-10-05T14:23:43.866Z,97463.63
2022-10-05T14:26:39.802Z,97460.78
2022-10-05T14:29:14.995Z,97456.31
2022-10-05T14:32:15.599Z,97461.75
2022-10-05T14:34:56.141Z,97454.81
2022-10-05T14:37:25.712Z,97460.16
2022-10-05T14:39:57.322Z,97453.41
2022-10-05T14:42:29.081Z,97461.75
2022-10-05T14:45:20.366Z,97460.13
2022-10-05T14:47:51.375Z,97459.25
2022-10-05T14:50:26.255Z,97469.47
2022-10-05T14:53:11.030Z,97466.44
2022-10-05T14:56:02.033Z,97463.44
2022-10-05T14:58:43.621Z,97468.44
2022-10-05T15:01:44.661Z,97464.00
2022-10-05T15:04:17.762Z,97464.41
2022-10-05T15:06:55.211Z,97462.94
2022-10-05T15:09:45.922Z,97474.75
2022-10-05T15:12:18.225Z,97470.19
2022-10-05T15:14:47.340Z,97474.69
2022-10-05T15:17:20.486Z,97476.09
2022-10-05T15:20:09.515Z,97471.69
2022-10-05T15:23:07.296Z,97469.69
2022-10-05T15:25:48.356Z,97471.19
2022-10-05T15:28:42.834Z,97473.88
2022-10-05T15:31:26.711Z,97464.38
2022-10-05T15:34:07.366Z,97476.66
2022-10-05T15:36:52.719Z,97482.84
2022-10-05T15:39:43.302Z,97482.22
2022-10-05T15:42:17.277Z,97486.50
2022-10-05T15:45:02.298Z,97479.97
2022-10-05T15:47:47.639Z,97483.63
2022-10-05T15:50:26.714Z,97491.38
2022-10-05T15:53:06.501Z,97491.66
2022-10-05T15:55:42.156Z,97497.53
2022-10-05T15:59:00.790Z,97495.97
2022-10-05T16:01:33.199Z,97494.34
2022-10-05T16:04:02.489Z,97492.78
2022-10-05T16:07:09.423Z,97492.38
2022-10-05T16:10:01.295Z,97501.50
2022-10-05T16:12:37.177Z,97497.72
2022-10-05T16:15:28.432Z,97506.88
2022-10-05T16:18:18.282Z,97510.63
2022-10-05T16:21:02.748Z,97513.38
2022-10-05T16:23:41.716Z,97517.25
2022-10-05T16:26:09.078Z,97515.97
2022-10-05T16:29:12.887Z,97519.94
2022-10-05T16:31:42.694Z,97518.34
2022-10-05T16:34:31.410Z,97523.78
2022-10-05T16:37:02.270Z,97529.22
2022-10-05T16:39:45.658Z,97533.59
2022-10-05T16:42:47.376Z,97535.25
2022-10-05T16:45:47.129Z,97530.22
2022-10-05T16:48:25.515Z,97542.91
2022-10-05T16:51:15.394Z,97544.47
2022-10-05T16:54:03.830Z,97550.63
2022-10-05T16:56:42.620Z,97549.91
2022-10-05T16:59:11.708Z,97554.16
2022-10-05T17:01:56.543Z,97552.06
2022-10-05T17:04:44.756Z,97554.22
2022-10-05T17:07:39.285Z,97558.50
2022-10-05T17:10:46.240Z,97555.75
2022-10-05T17:13:36.256Z,97556.56
2022-10-05T17:16:40.341Z,97563.78
2022-10-05T17:19:32.805Z,97563.31
2022-10-05T17:22:31.152Z,97568.94
2022-10-05T17:25:06.783Z,97573.28
2022-10-05T17:27:35.202Z,97570.91
2022-10-05T17:30:29.381Z,97573.50
2022-10-05T17:33:17.663Z,97569.53
2022-10-05T17:35:52.141Z,97585.56
2022-10-05T17:38:24.417Z,97579.72
2022-10-05T17:41:00.213Z,97580.81
2022-10-05T17:43:35.580Z,97582.97
2022-10-05T17:46:08.694Z,97586.00
2022-10-05T17:48:59.515Z,97580.72
2022-10-05T17:51:47.736Z,97583.13
2022-10-05T17:54:48.217Z,97585.13
2022-10-05T17:57:36.748Z,97572.69
2022-10-05T18:00:29.290Z,97576.97
2022-10-05T18:02:57.431Z,97582.91
2022-10-05T18:05:28.760Z,97583.13
2022-10-05T18:08:13.219Z,97586.97
2022-10-05T18:11:19.792Z,97585.16
2022-10-05T18:13:49.960Z,97581.25
2022-10-05T18:16:59.416Z,97588.25
2022-10-05T18:19:30.066Z,97585.00
2022-10-05T18:22:03.557Z,97582.81
2022-10-05T18:24:49.737Z,97582.31
2022-10-05T18:27:26.476Z,97582.81
2022-10-05T18:30:14.313Z,97584.00
2022-10-05T18:33:20.297Z,97601.47
2022-10-05T18:36:06.776Z,97603.34
2022-10-05T18:38:55.146Z,97595.34
2022-10-05T18:41:27.422Z,97595.34
2022-10-05T18:44:12.118Z,97601.69
2022-10-05T18:46:45.293Z,97597.63
2022-10-05T18:49:20.466Z,97602.25
2022-10-05T18:51:54.885Z,97605.50
2022-10-05T18:54:47.426Z,97605.50
2022-10-05T18:57:47.605Z,97608.69
2022-10-05T19:00:21.415Z,97608.25
2022-10-05T19:02:57.276Z,97607.72
2022-10-05T19:05:47.960Z,97616.25
2022-10-05T19:08:45.178Z,97612.84
2022-10-05T19:11:53.310Z,97610.94
2022-10-05T19:14:45.243Z,97620.16
2022-10-05T19:17:17.611Z,97612.00
2022-10-05T19:19:53.124Z,97614.88
2022-10-05T19:22:43.759Z,97617.16
2022-10-05T19:25:22.329Z,97617.31
2022-10-05T19:28:01.043Z,97615.06
2022-10-05T19:30:41.997Z,97614.25
2022-10-05T19:33:33.591Z,97614.84
2022-10-05T19:36:18.382Z,97619.63
2022-10-05T19:38:52.039Z,97614.81
2022-10-05T19:41:42.065Z,97611.13
2022-10-05T19:44:08.428Z,97613.75
2022-10-05T19:46:37.842Z,97621.28
2022-10-05T19:49:09.587Z,97619.19
2022-10-05T19:51:47.948Z,97620.59
2022-10-05T19:54:28.970Z,97623.06
2022-10-05T19:56:57.224Z,97628.34
2022-10-05T19:59:31.296Z,97618.16
2022-10-05T20:01:58.822Z,97625.09
2022-10-05T20:04:34.316Z,97626.38
2022-10-05T20:07:02.296Z,97625.78
2022-10-05T20:09:29.623Z,97631.13
2022-10-05T20:11:56.725Z,97629.19
2022-10-05T20:14:31.733Z,97636.97
2022-10-05T20:17:44.250Z,97622.81
2022-10-05T20:20:31.096Z,97642.50
2022-10-05T20:23:20.988Z,97638.22
2022-10-05T20:26:07.870Z,97638.28
2022-10-05T20:28:34.375Z,97643.13
2022-10-05T20:31:00.841Z,97647.19
2022-10-05T20:33:28.108Z,97646.38
2022-10-05T20:35:55.680Z,97640.50
2022-10-05T20:38:22.798Z,97640.50
2022-10-05T20:40:49.224Z,97644.78
2022-10-05T20:43:15.829Z,97645.59
2022-10-05T20:45:43.238Z,97646.94
2022-10-05T20:48:14.207Z,97651.19
2022-10-05T20:50:40.781Z,97648.81
2022-10-05T20:53:11.793Z,97650.13
2022-10-05T20:55:38.593Z,97650.69
2022-10-05T20:58:05.052Z,97651.22
2022-10-05T21:00:51.491Z,97656.84
2022-10-05T21:03:19.211Z,97654.44
2022-10-05T21:05:46.850Z,97657.88
2022-10-05T21:08:13.857Z,97654.94
2022-10-05T21:10:40.301Z,97652.84
2022-10-05T21:13:06.716Z,97653.31
2022-10-05T21:15:33.101Z,97653.59
2022-10-05T21:17:59.526Z,97649.66
2022-10-05T21:20:25.996Z,97644.88
2022-10-05T21:22:52.386Z,97652.94
2022-10-05T21:25:18.898Z,97644.63
2022-10-05T21:27:46.279Z,97646.19
2022-10-05T21:30:12.835Z,97643.31
2022-10-05T21:32:43.994Z,97640.13
2022-10-05T21:35:10.939Z,97641.66
2022-10-05T21:37:37.570Z,97637.91
2022-10-05T21:40:04.629Z,97647.72
2022-10-05T21:42:31.302Z,97637.44
2022-10-05T21:44:57.686Z,97635.34
2022-10-05T21:47:24.150Z,97632.72
2022-10-05T21:49:50.575Z,97627.38
2022-10-05T21:52:17.657Z,97629.47
2022-10-05T21:54:44.125Z,97630.53
2022-10-05T21:57:12.331Z,97620.44
2022-10-05T21:59:40.173Z,97627.38
2022-10-05T22:02:06.945Z,97620.94
2022-10-05T22:04:33.306Z,97614.88
2022-10-05T22:06:59.673Z,97616.22
2022-10-05T22:09:26.191Z,97619.78
2022-10-05T22:11:52.623Z,97609.31
2022-10-05T22:14:19.038Z,97607.22
2022-10-05T22:16:45.649Z,97602.91
2022-10-05T22:19:18.607Z,97602.34
2022-10-05T22:21:45.082Z,97593.38
2022-10-05T22:24:11.730Z,97591.72
2022-10-05T22:26:40.077Z,97584.50
2022-10-05T22:29:06.496Z,97593.06
2022-10-05T22:31:33.065Z,97587.94
2022-10-05T22:33:59.509Z,97583.16
2022-10-05T22:36:26.129Z,97580.78
2022-10-05T22:38:52.520Z,97580.81
2022-10-05T22:41:19.532Z,97579.25
2022-10-05T22:43:50.114Z,97582.81
2022-10-05T22:46:17.152Z,97574.56
2022-10-05T22:48:43.582Z,97577.75
2022-10-05T22:51:10.284Z,97569.28
2022-10-05T22:53:36.725Z,97573.81
2022-10-05T22:56:05.123Z,97566.88
2022-10-05T22:58:31.685Z,97567.38
2022-10-05T23:01:06.512Z,97566.91
2022-10-05T23:03:33.738Z,97567.25
2022-10-05T23:06:03.507Z,97560.06
2022-10-05T23:08:31.708Z,97565.28
2022-10-05T23:11:06.301Z,97566.91
2022-10-05T23:13:33.504Z,97562.66
2022-10-05T23:16:15.118Z,97572.41
2022-10-05T23:18:42.211Z,97569.25
2022-10-05T23:21:10.467Z,97575.13
2022-10-05T23:23:38.545Z,97568.00
2022-10-05T23:26:07.184Z,97559.63
2022-10-05T23:28:34.627Z,97564.50
2022-10-05T23:31:03.143Z,97566.13
2022-10-05T23:33:29.590Z,97568.31
2022-10-05T23:36:06.756Z,97569.84
2022-10-05T23:38:34.750Z,97565.63
2022-10-05T23:41:02.421Z,97571.00
2022-10-05T23:43:29.277Z,97570.75
2022-10-05T23:45:56.458Z,97565.13
2022-10-05T23:48:22.927Z,97559.25
2022-10-05T23:50:49.980Z,97560.38
2022-10-05T23:53:17.895Z,97557.47
2022-10-05T23:55:44.633Z,97562.78
2022-10-05T23:58:11.674Z,97561.47
